TAP1709 LPPR-LPMA
Flight info
| Callsign | TAP1709 |
|---|---|
| Flight time | N/A |
| Altitude | 35000 |
| Route | ASMOV DCT DIRMA DCT VABEM DCT LIDRO |
| Aircraft | A320/M-SDE3FGHIRWY/LB1 |
Departure
| Time | 2026-05-06 13:52 |
|---|---|
| Airport | Francisco de Sá Carneiro Airport (LPPR) |
Arrival
| Time | N/A |
|---|---|
| Airport | Cristiano Ronaldo International Airport (LPMA) |
| Time | Latitude | Longitude | Altitude | Speed | Heading |
|---|---|---|---|---|---|
| 2026-05-06 13:36 | 41.23685 | -8.67251 | 237 ft | 0 kts | 78° |
| 2026-05-06 13:40 | 41.23685 | -8.67252 | 237 ft | 0 kts | 78° |
| 2026-05-06 13:45 | 41.23683 | -8.67262 | 252 ft | 3 kts | 79° |
| 2026-05-06 13:46 | 41.23680 | -8.67289 | 226 ft | 3 kts | 79° |
| 2026-05-06 13:46 | 41.23677 | -8.67314 | 237 ft | 3 kts | 97° |
| 2026-05-06 13:46 | 41.23683 | -8.67338 | 237 ft | 3 kts | 127° |
| 2026-05-06 13:46 | 41.23696 | -8.67357 | 237 ft | 3 kts | 137° |
| 2026-05-06 13:47 | 41.23704 | -8.67367 | 237 ft | 0 kts | 133° |
| 2026-05-06 13:49 | 41.23704 | -8.67366 | 237 ft | 1 kts | 134° |
| 2026-05-06 13:49 | 41.23677 | -8.67349 | 237 ft | 8 kts | 160° |
| 2026-05-06 13:49 | 41.23599 | -8.67335 | 237 ft | 15 kts | 191° |
| 2026-05-06 13:49 | 41.23497 | -8.67385 | 237 ft | 16 kts | 180° |
| 2026-05-06 13:50 | 41.23380 | -8.67366 | 237 ft | 16 kts | 192° |
| 2026-05-06 13:50 | 41.23330 | -8.67452 | 237 ft | 12 kts | 258° |
| 2026-05-06 13:50 | 41.23310 | -8.67580 | 237 ft | 15 kts | 258° |
| 2026-05-06 13:50 | 41.23302 | -8.67712 | 239 ft | 14 kts | 298° |
| 2026-05-06 13:51 | 41.23379 | -8.67751 | 238 ft | 7 kts | 349° |
| 2026-05-06 13:51 | 41.23384 | -8.67752 | 238 ft | 0 kts | 349° |
| 2026-05-06 13:51 | 41.23435 | -8.67765 | 239 ft | 27 kts | 349° |
| 2026-05-06 13:51 | 41.23869 | -8.67881 | 222 ft | 96 kts | 349° |
| 2026-05-06 13:52 | 41.24708 | -8.68102 | 211 ft | 148 kts | 348° |
| 2026-05-06 13:52 | 41.25827 | -8.68382 | 426 ft | 167 kts | 347° |
| 2026-05-06 13:52 | 41.26973 | -8.68673 | 1089 ft | 169 kts | 346° |
| 2026-05-06 13:52 | 41.28125 | -8.68977 | 1839 ft | 170 kts | 346° |
| 2026-05-06 13:53 | 41.29322 | -8.69296 | 2443 ft | 182 kts | 348° |
| 2026-05-06 13:53 | 41.30622 | -8.69643 | 2932 ft | 200 kts | 349° |
| 2026-05-06 13:53 | 41.32038 | -8.70017 | 3354 ft | 214 kts | 348° |
| 2026-05-06 13:53 | 41.33566 | -8.70417 | 3759 ft | 234 kts | 349° |
| 2026-05-06 13:54 | 41.35218 | -8.70850 | 4295 ft | 251 kts | 349° |
| 2026-05-06 13:54 | 41.36984 | -8.71317 | 4924 ft | 264 kts | 349° |
| 2026-05-06 13:54 | 41.38800 | -8.71823 | 5736 ft | 269 kts | 344° |
| 2026-05-06 13:54 | 41.40432 | -8.73019 | 6596 ft | 273 kts | 317° |
| 2026-05-06 13:55 | 41.41489 | -8.75118 | 7378 ft | 278 kts | 289° |
| 2026-05-06 13:55 | 41.41698 | -8.77671 | 8152 ft | 282 kts | 262° |
| 2026-05-06 13:55 | 41.41322 | -8.80265 | 8907 ft | 287 kts | 259° |
| 2026-05-06 13:55 | 41.40904 | -8.82884 | 9658 ft | 291 kts | 255° |
| 2026-05-06 13:56 | 41.40130 | -8.85375 | 10362 ft | 294 kts | 240° |
| 2026-05-06 13:56 | 41.38883 | -8.87587 | 10829 ft | 307 kts | 225° |
| 2026-05-06 13:56 | 41.37231 | -8.89497 | 11160 ft | 323 kts | 220° |
| 2026-05-06 13:56 | 41.35467 | -8.91472 | 11456 ft | 340 kts | 221° |
| 2026-05-06 13:57 | 41.33624 | -8.93549 | 11724 ft | 356 kts | 221° |
| 2026-05-06 13:57 | 41.31692 | -8.95731 | 11960 ft | 372 kts | 221° |
| 2026-05-06 13:57 | 41.29689 | -8.97991 | 12370 ft | 381 kts | 221° |
| 2026-05-06 13:57 | 41.27661 | -9.00278 | 12966 ft | 384 kts | 221° |
| 2026-05-06 13:58 | 41.25616 | -9.02583 | 13617 ft | 387 kts | 221° |
| 2026-05-06 13:58 | 41.23556 | -9.04901 | 14195 ft | 389 kts | 221° |
| 2026-05-06 13:58 | 41.21487 | -9.07231 | 14753 ft | 391 kts | 221° |
| 2026-05-06 13:58 | 41.19404 | -9.09573 | 15313 ft | 394 kts | 221° |
| 2026-05-06 13:59 | 41.17305 | -9.11930 | 15867 ft | 396 kts | 221° |
| 2026-05-06 13:59 | 41.15195 | -9.14294 | 16414 ft | 399 kts | 221° |
| 2026-05-06 13:59 | 41.13068 | -9.16677 | 16967 ft | 401 kts | 221° |
| 2026-05-06 13:59 | 41.10934 | -9.19066 | 17505 ft | 403 kts | 221° |
| 2026-05-06 14:00 | 41.08787 | -9.21473 | 18026 ft | 405 kts | 221° |
| 2026-05-06 14:00 | 41.06628 | -9.23896 | 18514 ft | 408 kts | 221° |
| 2026-05-06 14:00 | 41.04455 | -9.26330 | 18948 ft | 410 kts | 221° |
| 2026-05-06 14:00 | 41.02271 | -9.28772 | 19385 ft | 411 kts | 221° |
| 2026-05-06 14:01 | 41.00079 | -9.31217 | 19820 ft | 413 kts | 221° |
| 2026-05-06 14:01 | 40.97875 | -9.33671 | 20224 ft | 415 kts | 221° |
| 2026-05-06 14:01 | 40.95689 | -9.36183 | 20623 ft | 417 kts | 223° |
| 2026-05-06 14:01 | 40.93577 | -9.38817 | 21009 ft | 419 kts | 225° |
| 2026-05-06 14:02 | 40.91512 | -9.41542 | 21376 ft | 420 kts | 226° |
| 2026-05-06 14:02 | 40.89460 | -9.44311 | 21754 ft | 422 kts | 226° |
| 2026-05-06 14:02 | 40.87401 | -9.47085 | 22110 ft | 424 kts | 226° |
| 2026-05-06 14:02 | 40.85299 | -9.49827 | 22454 ft | 426 kts | 222° |
| 2026-05-06 14:03 | 40.82986 | -9.52203 | 22800 ft | 428 kts | 217° |
| 2026-05-06 14:03 | 40.80567 | -9.54520 | 23117 ft | 430 kts | 217° |
| 2026-05-06 14:03 | 40.78139 | -9.56834 | 23434 ft | 432 kts | 217° |
| 2026-05-06 14:03 | 40.75690 | -9.59161 | 23718 ft | 434 kts | 217° |
| 2026-05-06 14:04 | 40.73236 | -9.61491 | 23998 ft | 435 kts | 217° |
| 2026-05-06 14:04 | 40.70778 | -9.63829 | 24263 ft | 437 kts | 217° |
| 2026-05-06 14:04 | 40.68314 | -9.66175 | 24525 ft | 438 kts | 217° |
| 2026-05-06 14:04 | 40.65840 | -9.68535 | 24790 ft | 439 kts | 217° |
| 2026-05-06 14:05 | 40.64171 | -9.70125 | 24956 ft | 440 kts | 217° |
| 2026-05-06 14:05 | 40.61688 | -9.72486 | 25201 ft | 441 kts | 217° |
| 2026-05-06 14:05 | 40.59234 | -9.74818 | 25438 ft | 442 kts | 217° |
| 2026-05-06 14:05 | 40.56739 | -9.77186 | 25678 ft | 443 kts | 217° |
| 2026-05-06 14:06 | 40.54238 | -9.79558 | 25892 ft | 444 kts | 217° |
| 2026-05-06 14:06 | 40.51732 | -9.81933 | 26114 ft | 444 kts | 217° |
| 2026-05-06 14:06 | 40.49219 | -9.84311 | 26325 ft | 445 kts | 217° |
| 2026-05-06 14:06 | 40.46706 | -9.86684 | 26533 ft | 446 kts | 217° |
| 2026-05-06 14:07 | 40.44183 | -9.89063 | 26721 ft | 447 kts | 217° |
| 2026-05-06 14:07 | 40.41657 | -9.91444 | 26973 ft | 446 kts | 217° |
| 2026-05-06 14:07 | 40.39143 | -9.93814 | 27251 ft | 445 kts | 217° |
| 2026-05-06 14:07 | 40.36639 | -9.96176 | 27531 ft | 443 kts | 217° |
| 2026-05-06 14:08 | 40.34136 | -9.98534 | 27803 ft | 442 kts | 217° |
| 2026-05-06 14:08 | 40.31640 | -10.00883 | 28085 ft | 441 kts | 217° |
| 2026-05-06 14:08 | 40.29148 | -10.03223 | 28365 ft | 440 kts | 217° |
| 2026-05-06 14:08 | 40.26664 | -10.05550 | 28649 ft | 439 kts | 217° |
| 2026-05-06 14:09 | 40.24182 | -10.07869 | 28932 ft | 438 kts | 217° |
| 2026-05-06 14:09 | 40.21711 | -10.10183 | 29234 ft | 436 kts | 217° |
| 2026-05-06 14:09 | 40.19243 | -10.12491 | 29503 ft | 435 kts | 217° |
| 2026-05-06 14:09 | 40.16779 | -10.14794 | 29778 ft | 435 kts | 217° |
| 2026-05-06 14:10 | 40.14322 | -10.17090 | 30051 ft | 434 kts | 217° |
| 2026-05-06 14:10 | 40.11869 | -10.19375 | 30291 ft | 433 kts | 217° |
| 2026-05-06 14:10 | 40.09417 | -10.21659 | 30506 ft | 433 kts | 217° |
| 2026-05-06 14:10 | 40.06969 | -10.23940 | 30725 ft | 432 kts | 217° |
| 2026-05-06 14:11 | 40.04521 | -10.26221 | 30936 ft | 432 kts | 217° |
| 2026-05-06 14:11 | 40.02080 | -10.28497 | 31146 ft | 431 kts | 217° |
| 2026-05-06 14:11 | 39.99637 | -10.30767 | 31356 ft | 431 kts | 217° |
| 2026-05-06 14:11 | 39.97194 | -10.33034 | 31570 ft | 431 kts | 217° |
| 2026-05-06 14:12 | 39.94756 | -10.35292 | 31779 ft | 430 kts | 218° |
| 2026-05-06 14:12 | 39.92317 | -10.37550 | 31993 ft | 430 kts | 218° |
| 2026-05-06 14:12 | 39.89882 | -10.39804 | 32200 ft | 429 kts | 218° |
| 2026-05-06 14:12 | 39.87447 | -10.42054 | 32408 ft | 429 kts | 218° |
| 2026-05-06 14:13 | 39.85014 | -10.44302 | 32607 ft | 428 kts | 218° |
| 2026-05-06 14:13 | 39.82583 | -10.46543 | 32831 ft | 428 kts | 218° |
| 2026-05-06 14:13 | 39.80156 | -10.48781 | 33033 ft | 428 kts | 218° |
| 2026-05-06 14:13 | 39.77729 | -10.51016 | 33244 ft | 427 kts | 218° |
| 2026-05-06 14:14 | 39.75309 | -10.53245 | 33445 ft | 426 kts | 218° |
| 2026-05-06 14:14 | 39.72890 | -10.55470 | 33660 ft | 426 kts | 218° |
| 2026-05-06 14:14 | 39.70471 | -10.57690 | 33851 ft | 426 kts | 219° |
| 2026-05-06 14:14 | 39.68056 | -10.59910 | 34056 ft | 425 kts | 219° |
| 2026-05-06 14:15 | 39.65640 | -10.62127 | 34220 ft | 425 kts | 219° |
| 2026-05-06 14:15 | 39.63225 | -10.64338 | 34370 ft | 425 kts | 219° |
| 2026-05-06 14:15 | 39.60804 | -10.66548 | 34512 ft | 426 kts | 219° |
| 2026-05-06 14:15 | 39.58385 | -10.68756 | 34654 ft | 426 kts | 219° |
| 2026-05-06 14:16 | 39.55960 | -10.70972 | 34791 ft | 426 kts | 219° |
| 2026-05-06 14:16 | 39.53568 | -10.73159 | 34934 ft | 426 kts | 219° |
| 2026-05-06 14:16 | 39.51109 | -10.75405 | 35039 ft | 428 kts | 219° |
| 2026-05-06 14:16 | 39.48670 | -10.77632 | 35059 ft | 431 kts | 219° |
| 2026-05-06 14:17 | 39.43789 | -10.82085 | 35060 ft | 433 kts | 219° |
| 2026-05-06 14:17 | 39.38863 | -10.86565 | 35062 ft | 433 kts | 219° |
| 2026-05-06 14:18 | 39.33930 | -10.91042 | 35061 ft | 433 kts | 218° |
| 2026-05-06 14:18 | 39.28990 | -10.95507 | 35060 ft | 434 kts | 218° |
| 2026-05-06 14:19 | 39.24041 | -10.99976 | 35058 ft | 434 kts | 218° |
| 2026-05-06 14:19 | 39.19091 | -11.04442 | 35055 ft | 434 kts | 218° |
| 2026-05-06 14:20 | 39.14141 | -11.08912 | 35053 ft | 435 kts | 218° |
| 2026-05-06 14:20 | 39.09183 | -11.13371 | 35053 ft | 435 kts | 218° |
| 2026-05-06 14:21 | 39.04217 | -11.17829 | 35051 ft | 436 kts | 218° |
| 2026-05-06 14:21 | 38.99245 | -11.22288 | 35050 ft | 436 kts | 218° |
| 2026-05-06 14:22 | 38.94265 | -11.26741 | 35051 ft | 436 kts | 218° |
| 2026-05-06 14:22 | 38.89284 | -11.31191 | 35052 ft | 436 kts | 218° |
| 2026-05-06 14:23 | 38.84303 | -11.35639 | 35049 ft | 436 kts | 218° |
| 2026-05-06 14:23 | 38.79314 | -11.40081 | 35052 ft | 437 kts | 218° |
| 2026-05-06 14:24 | 38.74351 | -11.44487 | 35049 ft | 437 kts | 218° |
| 2026-05-06 14:24 | 38.69348 | -11.48922 | 35051 ft | 438 kts | 218° |
| 2026-05-06 14:25 | 38.64337 | -11.53359 | 35049 ft | 438 kts | 218° |
| 2026-05-06 14:25 | 38.59324 | -11.57797 | 35050 ft | 439 kts | 218° |
| 2026-05-06 14:26 | 38.54299 | -11.62232 | 35053 ft | 439 kts | 218° |
| 2026-05-06 14:26 | 38.49263 | -11.66663 | 35055 ft | 440 kts | 218° |
| 2026-05-06 14:27 | 38.44221 | -11.71093 | 35053 ft | 440 kts | 218° |
| 2026-05-06 14:27 | 38.39177 | -11.75522 | 35053 ft | 441 kts | 218° |
| 2026-05-06 14:28 | 38.34123 | -11.79952 | 35052 ft | 441 kts | 218° |
| 2026-05-06 14:28 | 38.29094 | -11.84354 | 35054 ft | 442 kts | 218° |
| 2026-05-06 14:29 | 38.24027 | -11.88777 | 35054 ft | 442 kts | 218° |
| 2026-05-06 14:29 | 38.18947 | -11.93193 | 35053 ft | 442 kts | 218° |
| 2026-05-06 14:30 | 38.13867 | -11.97614 | 35056 ft | 443 kts | 218° |
| 2026-05-06 14:30 | 38.08775 | -12.02035 | 35058 ft | 443 kts | 218° |
| 2026-05-06 14:31 | 38.03680 | -12.06456 | 35054 ft | 445 kts | 218° |
| 2026-05-06 14:31 | 37.98574 | -12.10884 | 35055 ft | 445 kts | 218° |
| 2026-05-06 14:32 | 37.93457 | -12.15309 | 35070 ft | 445 kts | 218° |
| 2026-05-06 14:32 | 37.88331 | -12.19722 | 35072 ft | 445 kts | 218° |
| 2026-05-06 14:33 | 37.83206 | -12.24140 | 35066 ft | 446 kts | 218° |
| 2026-05-06 14:33 | 37.78075 | -12.28559 | 35061 ft | 446 kts | 218° |
| 2026-05-06 14:34 | 37.72936 | -12.32970 | 35060 ft | 447 kts | 218° |
| 2026-05-06 14:34 | 37.67785 | -12.37388 | 35063 ft | 448 kts | 218° |
| 2026-05-06 14:35 | 37.62633 | -12.41801 | 35067 ft | 448 kts | 218° |
| 2026-05-06 14:35 | 37.57459 | -12.46217 | 35067 ft | 449 kts | 218° |
| 2026-05-06 14:36 | 37.52312 | -12.50603 | 35072 ft | 450 kts | 218° |
| 2026-05-06 14:36 | 37.47091 | -12.55048 | 35076 ft | 450 kts | 218° |
| 2026-05-06 14:37 | 37.41928 | -12.59433 | 35078 ft | 451 kts | 218° |
| 2026-05-06 14:37 | 37.36726 | -12.63844 | 35084 ft | 451 kts | 218° |
| 2026-05-06 14:38 | 37.31516 | -12.68264 | 35084 ft | 452 kts | 218° |
| 2026-05-06 14:38 | 37.26296 | -12.72672 | 35089 ft | 453 kts | 218° |
| 2026-05-06 14:39 | 37.21063 | -12.77080 | 35092 ft | 453 kts | 218° |
| 2026-05-06 14:39 | 37.15823 | -12.81494 | 35092 ft | 454 kts | 218° |
| 2026-05-06 14:40 | 37.10580 | -12.85918 | 35093 ft | 455 kts | 218° |
| 2026-05-06 14:40 | 37.05326 | -12.90340 | 35091 ft | 455 kts | 218° |
| 2026-05-06 14:41 | 37.00054 | -12.94747 | 35089 ft | 456 kts | 218° |
| 2026-05-06 14:41 | 36.94775 | -12.99155 | 35092 ft | 456 kts | 218° |
| 2026-05-06 14:42 | 36.89495 | -13.03565 | 35088 ft | 457 kts | 218° |
| 2026-05-06 14:42 | 36.84208 | -13.07983 | 35089 ft | 457 kts | 218° |
| 2026-05-06 14:43 | 36.78911 | -13.12391 | 35092 ft | 458 kts | 218° |
| 2026-05-06 14:43 | 36.73607 | -13.16800 | 35093 ft | 458 kts | 218° |
| 2026-05-06 14:44 | 36.68331 | -13.21175 | 35079 ft | 459 kts | 218° |
| 2026-05-06 14:45 | 36.60355 | -13.27776 | 35081 ft | 460 kts | 218° |
| 2026-05-06 14:45 | 36.55022 | -13.32178 | 35073 ft | 460 kts | 218° |
| 2026-05-06 14:46 | 36.49847 | -13.36821 | 35073 ft | 458 kts | 222° |
| 2026-05-06 14:46 | 36.44857 | -13.41732 | 35074 ft | 457 kts | 223° |
| 2026-05-06 14:47 | 36.39859 | -13.46635 | 35078 ft | 458 kts | 222° |
| 2026-05-06 14:47 | 36.34799 | -13.51458 | 35074 ft | 459 kts | 222° |
| 2026-05-06 14:48 | 36.29709 | -13.56244 | 35074 ft | 460 kts | 222° |
| 2026-05-06 14:48 | 36.24614 | -13.61034 | 35076 ft | 460 kts | 222° |
| 2026-05-06 14:49 | 36.19522 | -13.65836 | 35078 ft | 460 kts | 222° |
| 2026-05-06 14:49 | 36.14435 | -13.70643 | 35075 ft | 461 kts | 222° |
| 2026-05-06 14:50 | 36.09331 | -13.75448 | 35093 ft | 461 kts | 222° |
| 2026-05-06 14:50 | 36.04229 | -13.80243 | 35092 ft | 461 kts | 222° |
| 2026-05-06 14:51 | 35.99149 | -13.85014 | 35095 ft | 462 kts | 222° |
| 2026-05-06 14:51 | 35.94030 | -13.89803 | 35098 ft | 462 kts | 222° |
| 2026-05-06 14:52 | 35.88901 | -13.94583 | 35087 ft | 462 kts | 222° |
| 2026-05-06 14:52 | 35.83777 | -13.99367 | 35083 ft | 462 kts | 222° |
| 2026-05-06 14:53 | 35.78641 | -14.04155 | 35087 ft | 463 kts | 222° |
| 2026-05-06 14:53 | 35.73501 | -14.08933 | 35088 ft | 463 kts | 222° |
| 2026-05-06 14:54 | 35.68358 | -14.13710 | 35084 ft | 463 kts | 222° |
| 2026-05-06 14:54 | 35.63206 | -14.18487 | 35083 ft | 464 kts | 222° |
| 2026-05-06 14:55 | 35.58048 | -14.23257 | 35085 ft | 464 kts | 222° |
| 2026-05-06 14:55 | 35.52883 | -14.28026 | 35089 ft | 465 kts | 222° |
| 2026-05-06 14:56 | 35.48585 | -14.31989 | 35092 ft | 465 kts | 222° |
| 2026-05-06 14:56 | 35.43402 | -14.36759 | 35098 ft | 466 kts | 222° |
| 2026-05-06 14:57 | 35.38218 | -14.41524 | 35103 ft | 466 kts | 222° |
| 2026-05-06 14:57 | 35.33025 | -14.46291 | 35108 ft | 466 kts | 222° |
| 2026-05-06 14:58 | 35.27832 | -14.51060 | 35108 ft | 467 kts | 222° |
| 2026-05-06 14:58 | 35.22630 | -14.55827 | 35114 ft | 467 kts | 222° |
| 2026-05-06 14:59 | 35.17422 | -14.60583 | 35119 ft | 468 kts | 222° |
| 2026-05-06 14:59 | 35.12203 | -14.65336 | 35118 ft | 468 kts | 222° |
| 2026-05-06 15:00 | 35.06990 | -14.70092 | 35120 ft | 468 kts | 222° |
| 2026-05-06 15:00 | 35.01799 | -14.74814 | 35120 ft | 469 kts | 222° |
| 2026-05-06 15:01 | 34.96565 | -14.79560 | 35123 ft | 469 kts | 222° |
| 2026-05-06 15:01 | 34.91317 | -14.84301 | 35118 ft | 470 kts | 221° |
| 2026-05-06 15:02 | 34.86068 | -14.89047 | 35110 ft | 470 kts | 222° |
| 2026-05-06 15:02 | 34.80820 | -14.93794 | 35116 ft | 470 kts | 222° |
| 2026-05-06 15:03 | 34.75562 | -14.98537 | 35131 ft | 471 kts | 222° |
| 2026-05-06 15:03 | 34.70300 | -15.03270 | 35121 ft | 470 kts | 221° |
| 2026-05-06 15:04 | 34.65043 | -15.08002 | 35125 ft | 470 kts | 222° |
| 2026-05-06 15:04 | 34.59777 | -15.12731 | 35122 ft | 471 kts | 221° |
| 2026-05-06 15:05 | 34.54505 | -15.17445 | 35120 ft | 471 kts | 221° |
| 2026-05-06 15:05 | 34.49272 | -15.22129 | 35120 ft | 471 kts | 221° |
| 2026-05-06 15:06 | 34.43994 | -15.26842 | 35114 ft | 471 kts | 221° |
| 2026-05-06 15:06 | 34.38713 | -15.31549 | 35115 ft | 472 kts | 221° |
| 2026-05-06 15:07 | 34.33422 | -15.36252 | 35120 ft | 472 kts | 221° |
| 2026-05-06 15:07 | 34.28134 | -15.40956 | 35117 ft | 472 kts | 221° |
| 2026-05-06 15:08 | 34.22836 | -15.45656 | 35115 ft | 472 kts | 221° |
| 2026-05-06 15:08 | 34.17540 | -15.50350 | 35115 ft | 472 kts | 221° |
| 2026-05-06 15:09 | 34.12236 | -15.55051 | 35112 ft | 473 kts | 221° |
| 2026-05-06 15:09 | 34.06931 | -15.59744 | 35106 ft | 473 kts | 221° |
| 2026-05-06 15:10 | 34.01613 | -15.64426 | 35103 ft | 474 kts | 221° |
| 2026-05-06 15:10 | 33.96287 | -15.69108 | 35097 ft | 474 kts | 221° |
| 2026-05-06 15:11 | 33.90961 | -15.73794 | 35097 ft | 474 kts | 221° |
| 2026-05-06 15:11 | 33.85624 | -15.78478 | 35098 ft | 475 kts | 221° |
| 2026-05-06 15:12 | 33.80322 | -15.83127 | 34219 ft | 478 kts | 221° |
| 2026-05-06 15:12 | 33.77608 | -15.85507 | 32967 ft | 485 kts | 221° |
| 2026-05-06 15:12 | 33.74886 | -15.87886 | 32036 ft | 484 kts | 221° |
| 2026-05-06 15:12 | 33.72150 | -15.90272 | 30991 ft | 487 kts | 221° |
| 2026-05-06 15:13 | 33.69397 | -15.92674 | 29893 ft | 491 kts | 221° |
| 2026-05-06 15:13 | 33.66623 | -15.95089 | 28722 ft | 493 kts | 221° |
| 2026-05-06 15:13 | 33.63800 | -15.97432 | 27582 ft | 495 kts | 218° |
| 2026-05-06 15:13 | 33.60911 | -15.99690 | 26364 ft | 497 kts | 217° |
| 2026-05-06 15:14 | 33.57972 | -16.01896 | 25113 ft | 499 kts | 216° |
| 2026-05-06 15:14 | 33.55010 | -16.04076 | 23881 ft | 500 kts | 215° |
| 2026-05-06 15:14 | 33.52056 | -16.06252 | 22835 ft | 494 kts | 215° |
| 2026-05-06 15:14 | 33.49171 | -16.08403 | 21950 ft | 486 kts | 216° |
| 2026-05-06 15:15 | 33.46330 | -16.10556 | 21146 ft | 478 kts | 216° |
| 2026-05-06 15:15 | 33.43540 | -16.12692 | 20260 ft | 474 kts | 216° |
| 2026-05-06 15:15 | 33.40790 | -16.14810 | 19475 ft | 467 kts | 216° |
| 2026-05-06 15:15 | 33.38070 | -16.16906 | 18777 ft | 461 kts | 216° |
| 2026-05-06 15:16 | 33.35381 | -16.18972 | 17874 ft | 459 kts | 215° |
| 2026-05-06 15:16 | 33.32723 | -16.21005 | 17269 ft | 449 kts | 215° |
| 2026-05-06 15:16 | 33.30104 | -16.22999 | 16495 ft | 444 kts | 215° |
| 2026-05-06 15:16 | 33.27508 | -16.24973 | 15670 ft | 442 kts | 215° |
| 2026-05-06 15:17 | 33.24928 | -16.26931 | 15051 ft | 435 kts | 215° |
| 2026-05-06 15:17 | 33.22377 | -16.28863 | 14345 ft | 432 kts | 214° |
| 2026-05-06 15:17 | 33.19862 | -16.30767 | 13615 ft | 429 kts | 214° |
| 2026-05-06 15:17 | 33.17363 | -16.32656 | 12977 ft | 422 kts | 214° |
| 2026-05-06 15:18 | 33.14900 | -16.34519 | 12322 ft | 417 kts | 214° |
| 2026-05-06 15:18 | 33.12471 | -16.36360 | 11698 ft | 411 kts | 214° |
| 2026-05-06 15:18 | 33.10108 | -16.38152 | 11183 ft | 403 kts | 214° |
| 2026-05-06 15:18 | 33.07767 | -16.39923 | 11047 ft | 384 kts | 214° |
| 2026-05-06 15:19 | 33.05564 | -16.41584 | 10920 ft | 367 kts | 214° |
| 2026-05-06 15:19 | 33.03453 | -16.43176 | 10804 ft | 351 kts | 214° |
| 2026-05-06 15:19 | 33.01464 | -16.44676 | 10691 ft | 336 kts | 214° |
| 2026-05-06 15:19 | 32.99525 | -16.46137 | 10568 ft | 323 kts | 214° |
| 2026-05-06 15:20 | 32.97661 | -16.47540 | 10451 ft | 311 kts | 214° |
| 2026-05-06 15:20 | 32.95861 | -16.48900 | 10246 ft | 303 kts | 215° |
| 2026-05-06 15:20 | 32.94100 | -16.50231 | 10109 ft | 299 kts | 215° |
| 2026-05-06 15:20 | 32.92429 | -16.51621 | 9988 ft | 286 kts | 224° |
| 2026-05-06 15:21 | 32.91042 | -16.53119 | 9857 ft | 275 kts | 225° |
| 2026-05-06 15:21 | 32.89651 | -16.54611 | 9726 ft | 264 kts | 225° |
| 2026-05-06 15:21 | 32.88311 | -16.56036 | 9597 ft | 253 kts | 225° |
| 2026-05-06 15:21 | 32.87029 | -16.57396 | 9439 ft | 242 kts | 225° |
| 2026-05-06 15:22 | 32.85788 | -16.58716 | 9138 ft | 238 kts | 225° |
| 2026-05-06 15:22 | 32.84561 | -16.60025 | 8786 ft | 236 kts | 225° |
| 2026-05-06 15:22 | 32.83345 | -16.61322 | 8438 ft | 234 kts | 225° |
| 2026-05-06 15:22 | 32.82099 | -16.62553 | 8094 ft | 233 kts | 217° |
| 2026-05-06 15:23 | 32.80684 | -16.63485 | 7757 ft | 233 kts | 205° |
| 2026-05-06 15:23 | 32.79158 | -16.64132 | 7421 ft | 232 kts | 201° |
| 2026-05-06 15:23 | 32.77634 | -16.64746 | 7103 ft | 230 kts | 201° |
| 2026-05-06 15:23 | 32.76125 | -16.65355 | 6791 ft | 228 kts | 201° |
| 2026-05-06 15:24 | 32.74632 | -16.65959 | 6475 ft | 226 kts | 202° |
| 2026-05-06 15:24 | 32.73153 | -16.66557 | 6145 ft | 223 kts | 201° |
| 2026-05-06 15:24 | 32.71696 | -16.67150 | 5938 ft | 217 kts | 202° |
| 2026-05-06 15:24 | 32.70299 | -16.67717 | 5806 ft | 207 kts | 202° |
| 2026-05-06 15:25 | 32.68968 | -16.68255 | 5651 ft | 198 kts | 202° |
| 2026-05-06 15:25 | 32.67634 | -16.68799 | 5161 ft | 209 kts | 201° |
| 2026-05-06 15:25 | 32.66219 | -16.69338 | 4756 ft | 214 kts | 192° |
| 2026-05-06 15:25 | 32.64778 | -16.69242 | 4609 ft | 205 kts | 160° |
| 2026-05-06 15:26 | 32.63615 | -16.68402 | 4471 ft | 190 kts | 130° |
| 2026-05-06 15:26 | 32.62944 | -16.67145 | 4298 ft | 176 kts | 103° |
| 2026-05-06 15:26 | 32.62788 | -16.65738 | 4167 ft | 171 kts | 79° |
| 2026-05-06 15:26 | 32.63136 | -16.64310 | 4181 ft | 197 kts | 55° |
| 2026-05-06 15:27 | 32.64069 | -16.63144 | 4097 ft | 194 kts | 28° |
| 2026-05-06 15:27 | 32.65319 | -16.62614 | 4099 ft | 192 kts | 6° |
| 2026-05-06 15:27 | 32.66641 | -16.62408 | 4103 ft | 192 kts | 7° |
| 2026-05-06 15:27 | 32.67972 | -16.62231 | 4107 ft | 192 kts | 356° |
| 2026-05-06 15:28 | 32.69232 | -16.62693 | 4111 ft | 193 kts | 326° |
| 2026-05-06 15:28 | 32.70099 | -16.63904 | 4088 ft | 198 kts | 295° |
| 2026-05-06 15:28 | 32.70258 | -16.65523 | 3931 ft | 204 kts | 260° |
| 2026-05-06 15:28 | 32.69604 | -16.67018 | 3838 ft | 210 kts | 229° |
| 2026-05-06 15:29 | 32.68602 | -16.68251 | 3632 ft | 210 kts | 228° |
| 2026-05-06 15:29 | 32.67587 | -16.69501 | 3436 ft | 210 kts | 229° |
| 2026-05-06 15:29 | 32.66577 | -16.70753 | 3207 ft | 210 kts | 229° |
| 2026-05-06 15:29 | 32.65573 | -16.72002 | 2973 ft | 209 kts | 229° |
| 2026-05-06 15:30 | 32.64573 | -16.73251 | 2761 ft | 208 kts | 229° |
| 2026-05-06 15:30 | 32.63578 | -16.74496 | 2531 ft | 207 kts | 229° |
| 2026-05-06 15:30 | 32.62636 | -16.75666 | 2358 ft | 186 kts | 229° |
| 2026-05-06 15:30 | 32.61862 | -16.76818 | 2105 ft | 171 kts | 251° |
| 2026-05-06 15:31 | 32.61693 | -16.78084 | 1967 ft | 147 kts | 281° |
| 2026-05-06 15:31 | 32.62045 | -16.79190 | 1748 ft | 142 kts | 309° |
| 2026-05-06 15:31 | 32.62771 | -16.79932 | 1532 ft | 137 kts | 336° |
| 2026-05-06 15:32 | 32.64621 | -16.80341 | 1148 ft | 137 kts | 0° |
| 2026-05-06 15:32 | 32.65568 | -16.80338 | 961 ft | 136 kts | 1° |
| 2026-05-06 15:32 | 32.66512 | -16.80286 | 774 ft | 136 kts | 9° |
| 2026-05-06 15:32 | 32.67394 | -16.79908 | 625 ft | 136 kts | 28° |
| 2026-05-06 15:33 | 32.68162 | -16.79262 | 450 ft | 135 kts | 36° |
| 2026-05-06 15:33 | 32.68859 | -16.78523 | 223 ft | 136 kts | 41° |
| 2026-05-06 15:33 | 32.69499 | -16.77766 | 243 ft | 127 kts | 43° |
| 2026-05-06 15:33 | 32.70134 | -16.76969 | 825 ft | 137 kts | 44° |
| 2026-05-06 15:34 | 32.70816 | -16.76051 | 1427 ft | 161 kts | 48° |
| 2026-05-06 15:34 | 32.71429 | -16.74841 | 2036 ft | 186 kts | 70° |